sensor_id;sensor_type;location;lat;lon;timestamp;P1;durP1;ratioP1;P2;durP2;ratioP2
82296;SDS011;71899;51.992;8.648;2024-03-06T00:00:21;78.07;;;34.80;;
82296;SDS011;71899;51.992;8.648;2024-03-06T00:02:47;68.57;;;32.20;;
82296;SDS011;71899;51.992;8.648;2024-03-06T00:05:13;77.80;;;33.65;;
82296;SDS011;71899;51.992;8.648;2024-03-06T00:07:38;74.28;;;33.70;;
82296;SDS011;71899;51.992;8.648;2024-03-06T00:10:03;83.65;;;34.63;;
82296;SDS011;71899;51.992;8.648;2024-03-06T00:12:30;75.55;;;33.20;;
82296;SDS011;71899;51.992;8.648;2024-03-06T00:14:55;72.75;;;33.95;;
82296;SDS011;71899;51.992;8.648;2024-03-06T00:17:20;69.78;;;32.45;;
82296;SDS011;71899;51.992;8.648;2024-03-06T00:19:46;71.20;;;31.55;;
82296;SDS011;71899;51.992;8.648;2024-03-06T00:22:11;75.72;;;34.17;;
82296;SDS011;71899;51.992;8.648;2024-03-06T00:24:36;77.00;;;36.08;;
82296;SDS011;71899;51.992;8.648;2024-03-06T00:27:02;76.20;;;34.72;;
82296;SDS011;71899;51.992;8.648;2024-03-06T00:29:29;77.72;;;34.90;;
82296;SDS011;71899;51.992;8.648;2024-03-06T00:31:55;85.55;;;33.92;;
82296;SDS011;71899;51.992;8.648;2024-03-06T00:34:20;72.82;;;32.78;;
82296;SDS011;71899;51.992;8.648;2024-03-06T00:36:46;74.75;;;34.50;;
82296;SDS011;71899;51.992;8.648;2024-03-06T00:39:11;76.15;;;33.95;;
82296;SDS011;71899;51.992;8.648;2024-03-06T00:41:39;69.25;;;32.88;;
82296;SDS011;71899;51.992;8.648;2024-03-06T00:44:04;83.25;;;34.35;;
82296;SDS011;71899;51.992;8.648;2024-03-06T00:46:30;82.30;;;36.22;;
82296;SDS011;71899;51.992;8.648;2024-03-06T00:48:56;85.40;;;34.55;;
82296;SDS011;71899;51.992;8.648;2024-03-06T00:51:21;81.40;;;34.28;;
82296;SDS011;71899;51.992;8.648;2024-03-06T00:53:47;83.05;;;34.35;;
82296;SDS011;71899;51.992;8.648;2024-03-06T00:56:12;85.13;;;35.03;;
82296;SDS011;71899;51.992;8.648;2024-03-06T00:58:37;69.78;;;32.70;;
82296;SDS011;71899;51.992;8.648;2024-03-06T01:01:03;78.97;;;36.60;;
82296;SDS011;71899;51.992;8.648;2024-03-06T01:03:29;75.28;;;33.50;;
82296;SDS011;71899;51.992;8.648;2024-03-06T01:05:54;78.93;;;31.73;;
82296;SDS011;71899;51.992;8.648;2024-03-06T01:08:21;90.22;;;35.72;;
82296;SDS011;71899;51.992;8.648;2024-03-06T01:10:47;84.40;;;34.53;;
82296;SDS011;71899;51.992;8.648;2024-03-06T01:13:13;80.75;;;35.97;;
82296;SDS011;71899;51.992;8.648;2024-03-06T01:15:38;87.85;;;33.60;;
82296;SDS011;71899;51.992;8.648;2024-03-06T01:18:04;95.38;;;37.00;;
82296;SDS011;71899;51.992;8.648;2024-03-06T01:20:29;79.32;;;37.17;;
82296;SDS011;71899;51.992;8.648;2024-03-06T01:22:55;86.47;;;35.80;;
82296;SDS011;71899;51.992;8.648;2024-03-06T01:25:20;93.32;;;35.55;;
82296;SDS011;71899;51.992;8.648;2024-03-06T01:27:47;95.65;;;35.42;;
82296;SDS011;71899;51.992;8.648;2024-03-06T01:30:13;107.53;;;39.78;;
82296;SDS011;71899;51.992;8.648;2024-03-06T01:32:39;99.90;;;39.08;;
82296;SDS011;71899;51.992;8.648;2024-03-06T01:35:04;102.30;;;38.65;;
82296;SDS011;71899;51.992;8.648;2024-03-06T01:37:31;102.10;;;40.33;;
82296;SDS011;71899;51.992;8.648;2024-03-06T01:39:56;100.55;;;37.78;;
82296;SDS011;71899;51.992;8.648;2024-03-06T01:42:22;108.75;;;40.80;;
82296;SDS011;71899;51.992;8.648;2024-03-06T01:44:47;111.47;;;39.65;;
82296;SDS011;71899;51.992;8.648;2024-03-06T01:47:12;116.13;;;40.90;;
82296;SDS011;71899;51.992;8.648;2024-03-06T01:49:38;105.95;;;40.50;;
82296;SDS011;71899;51.992;8.648;2024-03-06T01:52:04;116.13;;;39.55;;
82296;SDS011;71899;51.992;8.648;2024-03-06T01:54:29;106.72;;;39.88;;
82296;SDS011;71899;51.992;8.648;2024-03-06T01:56:57;111.22;;;38.67;;
82296;SDS011;71899;51.992;8.648;2024-03-06T01:59:25;113.25;;;40.88;;
82296;SDS011;71899;51.992;8.648;2024-03-06T02:01:54;111.85;;;40.58;;
82296;SDS011;71899;51.992;8.648;2024-03-06T02:04:20;112.30;;;41.72;;
82296;SDS011;71899;51.992;8.648;2024-03-06T02:06:45;114.65;;;41.08;;
82296;SDS011;71899;51.992;8.648;2024-03-06T02:09:12;106.80;;;41.33;;
82296;SDS011;71899;51.992;8.648;2024-03-06T02:11:39;112.13;;;41.20;;
82296;SDS011;71899;51.992;8.648;2024-03-06T02:14:04;111.13;;;40.00;;
82296;SDS011;71899;51.992;8.648;2024-03-06T02:16:31;117.10;;;39.13;;
82296;SDS011;71899;51.992;8.648;2024-03-06T02:18:57;109.97;;;40.80;;
82296;SDS011;71899;51.992;8.648;2024-03-06T02:21:23;112.97;;;40.97;;
82296;SDS011;71899;51.992;8.648;2024-03-06T02:23:49;136.13;;;45.13;;
82296;SDS011;71899;51.992;8.648;2024-03-06T02:26:19;117.93;;;41.90;;
82296;SDS011;71899;51.992;8.648;2024-03-06T02:28:49;130.68;;;44.08;;
82296;SDS011;71899;51.992;8.648;2024-03-06T02:31:18;124.38;;;42.60;;
82296;SDS011;71899;51.992;8.648;2024-03-06T02:33:45;128.20;;;44.00;;
82296;SDS011;71899;51.992;8.648;2024-03-06T02:36:12;125.13;;;42.95;;
82296;SDS011;71899;51.992;8.648;2024-03-06T02:38:37;135.30;;;44.20;;
82296;SDS011;71899;51.992;8.648;2024-03-06T02:41:03;129.75;;;44.28;;
82296;SDS011;71899;51.992;8.648;2024-03-06T02:43:29;140.65;;;45.28;;
82296;SDS011;71899;51.992;8.648;2024-03-06T02:45:54;133.25;;;43.80;;
82296;SDS011;71899;51.992;8.648;2024-03-06T02:48:19;140.35;;;44.03;;
82296;SDS011;71899;51.992;8.648;2024-03-06T02:50:44;131.45;;;42.72;;
82296;SDS011;71899;51.992;8.648;2024-03-06T02:53:10;130.18;;;46.05;;
82296;SDS011;71899;51.992;8.648;2024-03-06T02:55:35;134.93;;;46.42;;
82296;SDS011;71899;51.992;8.648;2024-03-06T02:58:01;131.23;;;46.90;;
82296;SDS011;71899;51.992;8.648;2024-03-06T03:00:27;136.23;;;45.67;;
82296;SDS011;71899;51.992;8.648;2024-03-06T03:02:53;132.27;;;47.45;;
82296;SDS011;71899;51.992;8.648;2024-03-06T03:05:18;131.13;;;47.05;;
82296;SDS011;71899;51.992;8.648;2024-03-06T03:07:43;147.45;;;43.65;;
82296;SDS011;71899;51.992;8.648;2024-03-06T03:10:09;144.18;;;46.97;;
82296;SDS011;71899;51.992;8.648;2024-03-06T03:12:35;145.82;;;45.30;;
82296;SDS011;71899;51.992;8.648;2024-03-06T03:15:03;133.82;;;46.40;;
82296;SDS011;71899;51.992;8.648;2024-03-06T03:17:28;162.65;;;46.60;;
82296;SDS011;71899;51.992;8.648;2024-03-06T03:19:54;143.43;;;45.33;;
82296;SDS011;71899;51.992;8.648;2024-03-06T03:22:19;133.45;;;44.00;;
82296;SDS011;71899;51.992;8.648;2024-03-06T03:24:45;124.97;;;41.08;;
82296;SDS011;71899;51.992;8.648;2024-03-06T03:27:10;133.30;;;47.90;;
82296;SDS011;71899;51.992;8.648;2024-03-06T03:29:36;121.72;;;42.60;;
82296;SDS011;71899;51.992;8.648;2024-03-06T03:32:01;115.28;;;40.25;;
82296;SDS011;71899;51.992;8.648;2024-03-06T03:34:26;109.63;;;41.00;;
82296;SDS011;71899;51.992;8.648;2024-03-06T03:36:52;120.88;;;40.85;;
82296;SDS011;71899;51.992;8.648;2024-03-06T03:39:18;114.25;;;40.60;;
82296;SDS011;71899;51.992;8.648;2024-03-06T03:41:46;115.90;;;38.78;;
82296;SDS011;71899;51.992;8.648;2024-03-06T03:44:16;114.50;;;40.00;;
82296;SDS011;71899;51.992;8.648;2024-03-06T03:46:44;117.03;;;41.90;;
82296;SDS011;71899;51.992;8.648;2024-03-06T03:49:10;111.53;;;41.17;;
82296;SDS011;71899;51.992;8.648;2024-03-06T03:51:39;114.50;;;39.10;;
82296;SDS011;71899;51.992;8.648;2024-03-06T03:54:05;119.93;;;40.05;;
82296;SDS011;71899;51.992;8.648;2024-03-06T03:56:32;119.25;;;41.15;;
82296;SDS011;71899;51.992;8.648;2024-03-06T03:58:57;123.82;;;42.40;;
82296;SDS011;71899;51.992;8.648;2024-03-06T04:01:24;143.68;;;44.58;;
82296;SDS011;71899;51.992;8.648;2024-03-06T04:03:51;128.02;;;43.28;;
82296;SDS011;71899;51.992;8.648;2024-03-06T04:06:16;139.18;;;43.80;;
82296;SDS011;71899;51.992;8.648;2024-03-06T04:08:42;135.38;;;44.47;;
82296;SDS011;71899;51.992;8.648;2024-03-06T04:11:07;147.65;;;44.70;;
82296;SDS011;71899;51.992;8.648;2024-03-06T04:13:36;137.20;;;44.00;;
82296;SDS011;71899;51.992;8.648;2024-03-06T04:16:02;141.90;;;46.00;;
82296;SDS011;71899;51.992;8.648;2024-03-06T04:18:31;144.02;;;45.55;;
82296;SDS011;71899;51.992;8.648;2024-03-06T04:21:07;135.73;;;43.80;;
82296;SDS011;71899;51.992;8.648;2024-03-06T04:23:34;138.05;;;45.33;;
82296;SDS011;71899;51.992;8.648;2024-03-06T04:26:00;141.23;;;44.88;;
82296;SDS011;71899;51.992;8.648;2024-03-06T04:28:25;138.15;;;46.53;;
82296;SDS011;71899;51.992;8.648;2024-03-06T04:30:51;140.82;;;45.80;;
82296;SDS011;71899;51.992;8.648;2024-03-06T04:33:16;139.95;;;43.95;;
82296;SDS011;71899;51.992;8.648;2024-03-06T04:35:41;144.70;;;48.30;;
82296;SDS011;71899;51.992;8.648;2024-03-06T04:38:07;131.13;;;45.88;;
82296;SDS011;71899;51.992;8.648;2024-03-06T04:40:33;139.93;;;44.90;;
82296;SDS011;71899;51.992;8.648;2024-03-06T04:42:59;125.53;;;43.42;;
82296;SDS011;71899;51.992;8.648;2024-03-06T04:45:24;136.85;;;42.75;;
82296;SDS011;71899;51.992;8.648;2024-03-06T04:47:50;118.55;;;43.15;;
82296;SDS011;71899;51.992;8.648;2024-03-06T04:50:15;126.85;;;44.70;;
82296;SDS011;71899;51.992;8.648;2024-03-06T04:52:42;145.80;;;45.97;;
82296;SDS011;71899;51.992;8.648;2024-03-06T04:55:08;145.10;;;45.08;;
82296;SDS011;71899;51.992;8.648;2024-03-06T04:57:38;148.10;;;49.53;;
82296;SDS011;71899;51.992;8.648;2024-03-06T05:00:05;124.82;;;42.30;;
82296;SDS011;71899;51.992;8.648;2024-03-06T05:02:32;141.25;;;47.53;;
82296;SDS011;71899;51.992;8.648;2024-03-06T05:05:02;137.02;;;45.85;;
82296;SDS011;71899;51.992;8.648;2024-03-06T05:07:28;139.15;;;44.28;;
82296;SDS011;71899;51.992;8.648;2024-03-06T05:09:55;142.82;;;44.97;;
82296;SDS011;71899;51.992;8.648;2024-03-06T05:12:21;145.73;;;44.75;;
82296;SDS011;71899;51.992;8.648;2024-03-06T05:14:46;153.05;;;47.05;;
82296;SDS011;71899;51.992;8.648;2024-03-06T05:17:12;155.82;;;48.42;;
82296;SDS011;71899;51.992;8.648;2024-03-06T05:19:37;153.65;;;48.53;;
82296;SDS011;71899;51.992;8.648;2024-03-06T05:22:02;151.32;;;48.50;;
82296;SDS011;71899;51.992;8.648;2024-03-06T05:24:29;168.32;;;49.42;;
82296;SDS011;71899;51.992;8.648;2024-03-06T05:26:54;170.93;;;48.75;;
82296;SDS011;71899;51.992;8.648;2024-03-06T05:29:20;164.77;;;50.72;;
82296;SDS011;71899;51.992;8.648;2024-03-06T05:31:45;159.23;;;49.13;;
82296;SDS011;71899;51.992;8.648;2024-03-06T05:34:10;158.52;;;48.88;;
82296;SDS011;71899;51.992;8.648;2024-03-06T05:36:35;169.05;;;50.45;;
82296;SDS011;71899;51.992;8.648;2024-03-06T05:39:01;155.40;;;48.92;;
82296;SDS011;71899;51.992;8.648;2024-03-06T05:41:27;166.93;;;49.38;;
82296;SDS011;71899;51.992;8.648;2024-03-06T05:43:52;189.23;;;55.33;;
82296;SDS011;71899;51.992;8.648;2024-03-06T05:46:18;170.70;;;50.20;;
82296;SDS011;71899;51.992;8.648;2024-03-06T05:48:44;155.27;;;50.72;;
82296;SDS011;71899;51.992;8.648;2024-03-06T05:51:09;178.18;;;53.85;;
82296;SDS011;71899;51.992;8.648;2024-03-06T05:53:35;174.45;;;52.92;;
82296;SDS011;71899;51.992;8.648;2024-03-06T05:56:03;170.57;;;52.78;;
82296;SDS011;71899;51.992;8.648;2024-03-06T05:58:30;182.07;;;52.17;;
82296;SDS011;71899;51.992;8.648;2024-03-06T06:00:55;189.57;;;53.08;;
82296;SDS011;71899;51.992;8.648;2024-03-06T06:03:21;171.25;;;52.13;;
82296;SDS011;71899;51.992;8.648;2024-03-06T06:05:46;183.60;;;51.65;;
82296;SDS011;71899;51.992;8.648;2024-03-06T06:08:11;168.85;;;51.15;;
82296;SDS011;71899;51.992;8.648;2024-03-06T06:10:37;185.18;;;52.05;;
82296;SDS011;71899;51.992;8.648;2024-03-06T06:13:02;183.10;;;55.10;;
82296;SDS011;71899;51.992;8.648;2024-03-06T06:15:29;174.27;;;52.38;;
82296;SDS011;71899;51.992;8.648;2024-03-06T06:17:55;193.70;;;52.97;;
82296;SDS011;71899;51.992;8.648;2024-03-06T06:20:20;189.63;;;52.25;;
82296;SDS011;71899;51.992;8.648;2024-03-06T06:22:46;190.48;;;55.15;;
82296;SDS011;71899;51.992;8.648;2024-03-06T06:25:11;185.13;;;55.63;;
82296;SDS011;71899;51.992;8.648;2024-03-06T06:27:37;188.50;;;54.42;;
82296;SDS011;71899;51.992;8.648;2024-03-06T06:30:03;185.52;;;54.75;;
82296;SDS011;71899;51.992;8.648;2024-03-06T06:32:29;185.88;;;56.72;;
82296;SDS011;71899;51.992;8.648;2024-03-06T06:34:55;206.40;;;59.95;;
82296;SDS011;71899;51.992;8.648;2024-03-06T06:37:21;194.95;;;58.58;;
82296;SDS011;71899;51.992;8.648;2024-03-06T06:39:46;211.82;;;60.47;;
82296;SDS011;71899;51.992;8.648;2024-03-06T06:42:13;197.93;;;57.58;;
82296;SDS011;71899;51.992;8.648;2024-03-06T06:44:38;199.50;;;55.92;;
82296;SDS011;71899;51.992;8.648;2024-03-06T06:47:03;191.02;;;59.13;;
82296;SDS011;71899;51.992;8.648;2024-03-06T06:49:29;199.38;;;58.58;;
82296;SDS011;71899;51.992;8.648;2024-03-06T06:51:54;190.98;;;56.55;;
82296;SDS011;71899;51.992;8.648;2024-03-06T06:54:19;188.93;;;56.17;;
82296;SDS011;71899;51.992;8.648;2024-03-06T06:56:45;204.95;;;57.85;;
82296;SDS011;71899;51.992;8.648;2024-03-06T06:59:10;201.98;;;54.67;;
82296;SDS011;71899;51.992;8.648;2024-03-06T07:01:35;198.57;;;56.72;;
82296;SDS011;71899;51.992;8.648;2024-03-06T07:04:01;192.73;;;54.80;;
82296;SDS011;71899;51.992;8.648;2024-03-06T07:06:27;196.43;;;57.95;;
82296;SDS011;71899;51.992;8.648;2024-03-06T07:08:52;193.40;;;54.33;;
82296;SDS011;71899;51.992;8.648;2024-03-06T07:11:17;198.40;;;58.15;;
82296;SDS011;71899;51.992;8.648;2024-03-06T07:13:43;193.20;;;56.80;;
82296;SDS011;71899;51.992;8.648;2024-03-06T07:16:09;205.32;;;58.97;;
82296;SDS011;71899;51.992;8.648;2024-03-06T07:18:34;202.40;;;58.38;;
82296;SDS011;71899;51.992;8.648;2024-03-06T07:21:00;210.10;;;56.60;;
82296;SDS011;71899;51.992;8.648;2024-03-06T07:23:26;196.15;;;56.85;;
82296;SDS011;71899;51.992;8.648;2024-03-06T07:25:51;209.80;;;58.03;;
82296;SDS011;71899;51.992;8.648;2024-03-06T07:28:16;220.23;;;61.95;;
82296;SDS011;71899;51.992;8.648;2024-03-06T07:30:42;222.25;;;60.88;;
82296;SDS011;71899;51.992;8.648;2024-03-06T07:33:07;208.65;;;59.17;;
82296;SDS011;71899;51.992;8.648;2024-03-06T07:35:33;201.95;;;56.72;;
82296;SDS011;71899;51.992;8.648;2024-03-06T07:38:01;206.98;;;61.10;;
82296;SDS011;71899;51.992;8.648;2024-03-06T07:40:26;207.13;;;59.25;;
82296;SDS011;71899;51.992;8.648;2024-03-06T07:42:52;208.13;;;60.60;;
82296;SDS011;71899;51.992;8.648;2024-03-06T07:45:17;195.73;;;56.28;;
82296;SDS011;71899;51.992;8.648;2024-03-06T07:47:42;199.77;;;55.80;;
82296;SDS011;71899;51.992;8.648;2024-03-06T07:50:08;206.93;;;59.45;;
82296;SDS011;71899;51.992;8.648;2024-03-06T07:52:36;190.05;;;55.42;;
82296;SDS011;71899;51.992;8.648;2024-03-06T07:55:01;213.02;;;58.75;;
82296;SDS011;71899;51.992;8.648;2024-03-06T07:57:28;220.43;;;57.80;;
82296;SDS011;71899;51.992;8.648;2024-03-06T07:59:53;196.38;;;59.05;;
82296;SDS011;71899;51.992;8.648;2024-03-06T08:02:20;220.77;;;60.50;;
82296;SDS011;71899;51.992;8.648;2024-03-06T08:04:46;208.98;;;58.33;;
82296;SDS011;71899;51.992;8.648;2024-03-06T08:07:12;208.07;;;58.78;;
82296;SDS011;71899;51.992;8.648;2024-03-06T08:09:38;203.13;;;60.33;;
82296;SDS011;71899;51.992;8.648;2024-03-06T08:12:03;205.88;;;56.30;;
82296;SDS011;71899;51.992;8.648;2024-03-06T08:14:29;209.80;;;57.85;;
82296;SDS011;71899;51.992;8.648;2024-03-06T08:16:54;198.82;;;57.42;;
82296;SDS011;71899;51.992;8.648;2024-03-06T08:19:19;205.27;;;57.05;;
82296;SDS011;71899;51.992;8.648;2024-03-06T08:21:44;181.55;;;56.20;;
82296;SDS011;71899;51.992;8.648;2024-03-06T08:24:11;196.63;;;58.00;;
82296;SDS011;71899;51.992;8.648;2024-03-06T08:26:37;194.18;;;56.75;;
82296;SDS011;71899;51.992;8.648;2024-03-06T08:29:03;188.05;;;55.65;;
82296;SDS011;71899;51.992;8.648;2024-03-06T08:31:28;202.48;;;55.20;;
82296;SDS011;71899;51.992;8.648;2024-03-06T08:33:54;170.70;;;49.78;;
82296;SDS011;71899;51.992;8.648;2024-03-06T08:36:19;172.45;;;53.42;;
82296;SDS011;71899;51.992;8.648;2024-03-06T08:38:45;156.95;;;49.60;;
82296;SDS011;71899;51.992;8.648;2024-03-06T08:41:11;144.43;;;48.75;;
82296;SDS011;71899;51.992;8.648;2024-03-06T08:43:37;141.10;;;50.05;;
82296;SDS011;71899;51.992;8.648;2024-03-06T08:46:02;141.32;;;49.67;;
82296;SDS011;71899;51.992;8.648;2024-03-06T08:48:28;119.53;;;47.80;;
82296;SDS011;71899;51.992;8.648;2024-03-06T08:50:53;141.27;;;45.30;;
82296;SDS011;71899;51.992;8.648;2024-03-06T08:53:19;132.95;;;45.58;;
82296;SDS011;71899;51.992;8.648;2024-03-06T08:55:44;123.53;;;45.38;;
82296;SDS011;71899;51.992;8.648;2024-03-06T08:58:10;125.45;;;47.28;;
82296;SDS011;71899;51.992;8.648;2024-03-06T09:00:35;126.88;;;45.33;;
82296;SDS011;71899;51.992;8.648;2024-03-06T09:03:00;131.60;;;45.30;;
82296;SDS011;71899;51.992;8.648;2024-03-06T09:05:26;124.63;;;46.63;;
82296;SDS011;71899;51.992;8.648;2024-03-06T09:07:51;128.77;;;47.13;;
82296;SDS011;71899;51.992;8.648;2024-03-06T09:10:17;131.52;;;47.45;;
82296;SDS011;71899;51.992;8.648;2024-03-06T09:12:44;130.88;;;47.08;;
82296;SDS011;71899;51.992;8.648;2024-03-06T09:15:09;130.27;;;49.30;;
82296;SDS011;71899;51.992;8.648;2024-03-06T09:17:36;119.10;;;47.35;;
82296;SDS011;71899;51.992;8.648;2024-03-06T09:20:02;108.32;;;42.78;;
82296;SDS011;71899;51.992;8.648;2024-03-06T09:22:35;115.53;;;41.35;;
82296;SDS011;71899;51.992;8.648;2024-03-06T09:25:01;113.72;;;43.63;;
82296;SDS011;71899;51.992;8.648;2024-03-06T09:27:27;101.18;;;41.65;;
82296;SDS011;71899;51.992;8.648;2024-03-06T09:29:52;95.85;;;38.63;;
82296;SDS011;71899;51.992;8.648;2024-03-06T09:32:17;90.38;;;37.53;;
82296;SDS011;71899;51.992;8.648;2024-03-06T09:34:44;84.63;;;38.58;;
82296;SDS011;71899;51.992;8.648;2024-03-06T09:37:09;79.68;;;37.08;;
82296;SDS011;71899;51.992;8.648;2024-03-06T09:39:35;75.25;;;35.83;;
82296;SDS011;71899;51.992;8.648;2024-03-06T09:42:00;64.53;;;32.63;;
82296;SDS011;71899;51.992;8.648;2024-03-06T09:44:26;65.95;;;29.35;;
82296;SDS011;71899;51.992;8.648;2024-03-06T09:46:52;59.17;;;30.23;;
82296;SDS011;71899;51.992;8.648;2024-03-06T09:49:19;57.00;;;27.63;;
82296;SDS011;71899;51.992;8.648;2024-03-06T09:51:48;54.55;;;27.50;;
82296;SDS011;71899;51.992;8.648;2024-03-06T09:54:19;58.28;;;28.98;;
82296;SDS011;71899;51.992;8.648;2024-03-06T09:56:45;60.13;;;28.25;;
82296;SDS011;71899;51.992;8.648;2024-03-06T09:59:12;58.10;;;28.95;;
82296;SDS011;71899;51.992;8.648;2024-03-06T10:01:43;54.08;;;27.23;;
82296;SDS011;71899;51.992;8.648;2024-03-06T10:04:20;59.63;;;29.17;;
82296;SDS011;71899;51.992;8.648;2024-03-06T10:06:46;62.15;;;29.58;;
82296;SDS011;71899;51.992;8.648;2024-03-06T10:09:12;54.08;;;27.98;;
82296;SDS011;71899;51.992;8.648;2024-03-06T10:11:38;51.15;;;25.85;;
82296;SDS011;71899;51.992;8.648;2024-03-06T10:14:07;62.70;;;29.20;;
82296;SDS011;71899;51.992;8.648;2024-03-06T10:16:32;70.10;;;31.88;;
82296;SDS011;71899;51.992;8.648;2024-03-06T10:18:58;69.97;;;31.38;;
82296;SDS011;71899;51.992;8.648;2024-03-06T10:21:40;66.38;;;30.45;;
82296;SDS011;71899;51.992;8.648;2024-03-06T10:24:06;61.60;;;32.25;;
82296;SDS011;71899;51.992;8.648;2024-03-06T10:26:32;62.88;;;33.10;;
82296;SDS011;71899;51.992;8.648;2024-03-06T10:28:57;67.07;;;33.13;;
82296;SDS011;71899;51.992;8.648;2024-03-06T10:31:27;65.00;;;33.83;;
82296;SDS011;71899;51.992;8.648;2024-03-06T10:33:53;69.53;;;32.25;;
82296;SDS011;71899;51.992;8.648;2024-03-06T10:36:19;72.43;;;33.03;;
82296;SDS011;71899;51.992;8.648;2024-03-06T10:38:44;72.63;;;34.03;;
82296;SDS011;71899;51.992;8.648;2024-03-06T10:41:10;76.57;;;34.78;;
82296;SDS011;71899;51.992;8.648;2024-03-06T10:43:39;75.15;;;33.15;;
82296;SDS011;71899;51.992;8.648;2024-03-06T10:46:06;87.38;;;37.92;;
82296;SDS011;71899;51.992;8.648;2024-03-06T10:48:35;86.45;;;37.42;;
82296;SDS011;71899;51.992;8.648;2024-03-06T10:51:01;87.22;;;37.33;;
82296;SDS011;71899;51.992;8.648;2024-03-06T10:53:28;81.85;;;36.80;;
82296;SDS011;71899;51.992;8.648;2024-03-06T10:55:54;90.60;;;38.58;;
82296;SDS011;71899;51.992;8.648;2024-03-06T10:58:22;89.07;;;38.10;;
82296;SDS011;71899;51.992;8.648;2024-03-06T11:00:48;101.47;;;43.28;;
82296;SDS011;71899;51.992;8.648;2024-03-06T11:03:16;121.68;;;44.15;;
82296;SDS011;71899;51.992;8.648;2024-03-06T11:05:42;105.65;;;44.50;;
82296;SDS011;71899;51.992;8.648;2024-03-06T11:08:11;119.75;;;46.78;;
82296;SDS011;71899;51.992;8.648;2024-03-06T11:10:39;119.68;;;43.97;;
82296;SDS011;71899;51.992;8.648;2024-03-06T11:13:21;112.80;;;43.33;;
82296;SDS011;71899;51.992;8.648;2024-03-06T11:15:48;115.13;;;42.50;;
82296;SDS011;71899;51.992;8.648;2024-03-06T11:23:26;101.05;;;40.55;;
82296;SDS011;71899;51.992;8.648;2024-03-06T11:30:46;88.28;;;38.63;;
82296;SDS011;71899;51.992;8.648;2024-03-06T11:33:23;96.18;;;38.42;;
82296;SDS011;71899;51.992;8.648;2024-03-06T11:38:53;89.97;;;38.55;;
82296;SDS011;71899;51.992;8.648;2024-03-06T11:41:24;87.53;;;36.22;;
82296;SDS011;71899;51.992;8.648;2024-03-06T11:43:51;86.95;;;37.45;;
82296;SDS011;71899;51.992;8.648;2024-03-06T11:46:40;82.38;;;36.97;;
82296;SDS011;71899;51.992;8.648;2024-03-06T11:49:21;79.28;;;35.50;;
82296;SDS011;71899;51.992;8.648;2024-03-06T11:51:54;82.40;;;34.80;;
82296;SDS011;71899;51.992;8.648;2024-03-06T11:54:20;82.60;;;35.83;;
82296;SDS011;71899;51.992;8.648;2024-03-06T11:56:51;66.85;;;32.20;;
82296;SDS011;71899;51.992;8.648;2024-03-06T11:59:37;74.32;;;30.52;;
82296;SDS011;71899;51.992;8.648;2024-03-06T12:02:04;60.35;;;28.60;;
82296;SDS011;71899;51.992;8.648;2024-03-06T12:04:30;67.18;;;30.60;;
82296;SDS011;71899;51.992;8.648;2024-03-06T12:06:58;70.00;;;31.40;;
82296;SDS011;71899;51.992;8.648;2024-03-06T12:09:25;68.78;;;31.05;;
82296;SDS011;71899;51.992;8.648;2024-03-06T12:11:51;57.38;;;28.65;;
82296;SDS011;71899;51.992;8.648;2024-03-06T12:14:17;55.83;;;26.98;;
82296;SDS011;71899;51.992;8.648;2024-03-06T12:16:44;54.17;;;26.67;;
82296;SDS011;71899;51.992;8.648;2024-03-06T12:19:19;53.25;;;25.52;;
82296;SDS011;71899;51.992;8.648;2024-03-06T12:21:47;63.92;;;26.45;;
82296;SDS011;71899;51.992;8.648;2024-03-06T12:24:12;60.47;;;28.77;;
82296;SDS011;71899;51.992;8.648;2024-03-06T12:26:41;53.17;;;26.38;;
82296;SDS011;71899;51.992;8.648;2024-03-06T12:29:10;52.72;;;27.67;;
82296;SDS011;71899;51.992;8.648;2024-03-06T12:31:37;60.40;;;26.70;;
82296;SDS011;71899;51.992;8.648;2024-03-06T12:34:04;57.75;;;27.38;;
82296;SDS011;71899;51.992;8.648;2024-03-06T12:36:31;51.78;;;26.30;;
82296;SDS011;71899;51.992;8.648;2024-03-06T12:39:01;51.40;;;26.25;;
82296;SDS011;71899;51.992;8.648;2024-03-06T12:41:28;55.25;;;27.65;;
82296;SDS011;71899;51.992;8.648;2024-03-06T12:43:54;54.53;;;25.63;;
82296;SDS011;71899;51.992;8.648;2024-03-06T12:46:21;52.78;;;27.02;;
82296;SDS011;71899;51.992;8.648;2024-03-06T12:48:47;52.25;;;27.55;;
82296;SDS011;71899;51.992;8.648;2024-03-06T12:51:12;56.55;;;26.88;;
82296;SDS011;71899;51.992;8.648;2024-03-06T12:53:38;58.45;;;27.10;;
82296;SDS011;71899;51.992;8.648;2024-03-06T12:56:03;47.28;;;25.00;;
82296;SDS011;71899;51.992;8.648;2024-03-06T12:58:29;46.33;;;25.58;;
82296;SDS011;71899;51.992;8.648;2024-03-06T13:00:56;50.38;;;25.88;;
82296;SDS011;71899;51.992;8.648;2024-03-06T13:03:22;53.13;;;27.50;;
82296;SDS011;71899;51.992;8.648;2024-03-06T13:05:48;47.33;;;23.42;;
82296;SDS011;71899;51.992;8.648;2024-03-06T13:08:13;44.28;;;23.67;;
82296;SDS011;71899;51.992;8.648;2024-03-06T13:10:39;45.75;;;23.13;;
82296;SDS011;71899;51.992;8.648;2024-03-06T13:13:08;54.17;;;25.90;;
82296;SDS011;71899;51.992;8.648;2024-03-06T13:15:33;66.72;;;30.52;;
82296;SDS011;71899;51.992;8.648;2024-03-06T13:17:59;50.72;;;25.10;;
82296;SDS011;71899;51.992;8.648;2024-03-06T13:20:28;53.63;;;26.45;;
82296;SDS011;71899;51.992;8.648;2024-03-06T13:22:57;50.03;;;26.00;;
82296;SDS011;71899;51.992;8.648;2024-03-06T13:25:22;47.25;;;25.95;;
82296;SDS011;71899;51.992;8.648;2024-03-06T13:27:48;47.22;;;24.65;;
82296;SDS011;71899;51.992;8.648;2024-03-06T13:30:14;52.35;;;26.98;;
82296;SDS011;71899;51.992;8.648;2024-03-06T13:32:40;42.95;;;23.42;;
82296;SDS011;71899;51.992;8.648;2024-03-06T13:35:07;53.05;;;26.35;;
82296;SDS011;71899;51.992;8.648;2024-03-06T13:37:37;45.83;;;25.48;;
82296;SDS011;71899;51.992;8.648;2024-03-06T13:40:02;50.10;;;24.80;;
82296;SDS011;71899;51.992;8.648;2024-03-06T13:42:29;44.50;;;23.67;;
82296;SDS011;71899;51.992;8.648;2024-03-06T13:44:55;41.83;;;24.05;;
82296;SDS011;71899;51.992;8.648;2024-03-06T13:47:21;43.67;;;23.83;;
82296;SDS011;71899;51.992;8.648;2024-03-06T13:49:46;42.13;;;23.35;;
82296;SDS011;71899;51.992;8.648;2024-03-06T13:52:11;40.70;;;23.20;;
82296;SDS011;71899;51.992;8.648;2024-03-06T13:54:41;43.53;;;21.92;;
82296;SDS011;71899;51.992;8.648;2024-03-06T13:57:08;44.25;;;25.77;;
82296;SDS011;71899;51.992;8.648;2024-03-06T13:59:34;49.25;;;25.13;;
82296;SDS011;71899;51.992;8.648;2024-03-06T14:02:00;43.67;;;24.25;;
82296;SDS011;71899;51.992;8.648;2024-03-06T14:04:26;42.63;;;25.52;;
82296;SDS011;71899;51.992;8.648;2024-03-06T14:06:52;42.08;;;23.98;;
82296;SDS011;71899;51.992;8.648;2024-03-06T14:09:17;44.72;;;24.10;;
82296;SDS011;71899;51.992;8.648;2024-03-06T14:11:42;46.55;;;24.88;;
82296;SDS011;71899;51.992;8.648;2024-03-06T14:14:08;44.97;;;24.40;;
82296;SDS011;71899;51.992;8.648;2024-03-06T14:16:36;39.17;;;20.80;;
82296;SDS011;71899;51.992;8.648;2024-03-06T14:19:05;38.50;;;21.23;;
82296;SDS011;71899;51.992;8.648;2024-03-06T14:21:30;41.85;;;24.00;;